sensor_id;sensor_type;location;lat;lon;timestamp;P1;durP1;ratioP1;P2;durP2;ratioP2
68653;SDS011;55636;51.108;13.622;2023-06-14T00:00:23;2.50;;;2.30;;
68653;SDS011;55636;51.108;13.622;2023-06-14T00:01:25;2.72;;;2.40;;
68653;SDS011;55636;51.108;13.622;2023-06-14T00:02:29;3.22;;;2.40;;
68653;SDS011;55636;51.108;13.622;2023-06-14T00:03:31;4.55;;;2.50;;
68653;SDS011;55636;51.108;13.622;2023-06-14T00:04:35;4.70;;;2.38;;
68653;SDS011;55636;51.108;13.622;2023-06-14T00:05:38;3.92;;;2.50;;
68653;SDS011;55636;51.108;13.622;2023-06-14T00:06:43;3.75;;;2.67;;
68653;SDS011;55636;51.108;13.622;2023-06-14T00:07:48;2.95;;;2.60;;
68653;SDS011;55636;51.108;13.622;2023-06-14T00:08:50;2.80;;;2.60;;
68653;SDS011;55636;51.108;13.622;2023-06-14T00:09:53;2.47;;;2.28;;
68653;SDS011;55636;51.108;13.622;2023-06-14T00:10:55;4.25;;;2.80;;
68653;SDS011;55636;51.108;13.622;2023-06-14T00:11:57;2.92;;;2.63;;
68653;SDS011;55636;51.108;13.622;2023-06-14T00:13:03;2.70;;;2.50;;
68653;SDS011;55636;51.108;13.622;2023-06-14T00:14:06;2.70;;;2.50;;
68653;SDS011;55636;51.108;13.622;2023-06-14T00:15:09;3.53;;;2.75;;
68653;SDS011;55636;51.108;13.622;2023-06-14T00:16:12;4.72;;;2.78;;
68653;SDS011;55636;51.108;13.622;2023-06-14T00:17:14;3.00;;;2.80;;
68653;SDS011;55636;51.108;13.622;2023-06-14T00:18:18;2.90;;;2.60;;
68653;SDS011;55636;51.108;13.622;2023-06-14T00:19:21;3.17;;;2.50;;
68653;SDS011;55636;51.108;13.622;2023-06-14T00:20:23;3.58;;;2.83;;
68653;SDS011;55636;51.108;13.622;2023-06-14T00:21:26;3.67;;;2.33;;
68653;SDS011;55636;51.108;13.622;2023-06-14T00:22:30;3.63;;;2.75;;
68653;SDS011;55636;51.108;13.622;2023-06-14T00:23:33;4.43;;;2.67;;
68653;SDS011;55636;51.108;13.622;2023-06-14T00:24:36;3.95;;;2.72;;
68653;SDS011;55636;51.108;13.622;2023-06-14T00:25:38;2.83;;;2.55;;
68653;SDS011;55636;51.108;13.622;2023-06-14T00:26:41;2.78;;;2.58;;
68653;SDS011;55636;51.108;13.622;2023-06-14T00:27:43;3.25;;;2.50;;
68653;SDS011;55636;51.108;13.622;2023-06-14T00:28:46;3.15;;;2.85;;
68653;SDS011;55636;51.108;13.622;2023-06-14T00:29:48;2.90;;;2.65;;
68653;SDS011;55636;51.108;13.622;2023-06-14T00:30:50;2.92;;;2.63;;
68653;SDS011;55636;51.108;13.622;2023-06-14T00:31:53;2.90;;;2.60;;
68653;SDS011;55636;51.108;13.622;2023-06-14T00:32:55;2.70;;;2.50;;
68653;SDS011;55636;51.108;13.622;2023-06-14T00:34:00;4.20;;;2.83;;
68653;SDS011;55636;51.108;13.622;2023-06-14T00:35:02;5.07;;;2.90;;
68653;SDS011;55636;51.108;13.622;2023-06-14T00:36:05;3.03;;;2.60;;
68653;SDS011;55636;51.108;13.622;2023-06-14T00:37:07;4.38;;;2.70;;
68653;SDS011;55636;51.108;13.622;2023-06-14T00:38:10;4.43;;;2.60;;
68653;SDS011;55636;51.108;13.622;2023-06-14T00:39:15;3.60;;;3.00;;
68653;SDS011;55636;51.108;13.622;2023-06-14T00:40:17;3.25;;;2.60;;
68653;SDS011;55636;51.108;13.622;2023-06-14T00:41:20;2.60;;;2.40;;
68653;SDS011;55636;51.108;13.622;2023-06-14T00:42:23;2.90;;;2.65;;
68653;SDS011;55636;51.108;13.622;2023-06-14T00:43:26;3.28;;;2.85;;
68653;SDS011;55636;51.108;13.622;2023-06-14T00:44:29;3.70;;;2.97;;
68653;SDS011;55636;51.108;13.622;2023-06-14T00:45:31;3.42;;;2.78;;
68653;SDS011;55636;51.108;13.622;2023-06-14T00:46:38;2.95;;;2.58;;
68653;SDS011;55636;51.108;13.622;2023-06-14T00:47:41;3.72;;;2.85;;
68653;SDS011;55636;51.108;13.622;2023-06-14T00:48:44;4.68;;;2.88;;
68653;SDS011;55636;51.108;13.622;2023-06-14T00:49:47;3.67;;;2.60;;
68653;SDS011;55636;51.108;13.622;2023-06-14T00:50:52;3.13;;;2.83;;
68653;SDS011;55636;51.108;13.622;2023-06-14T00:51:54;4.72;;;2.67;;
68653;SDS011;55636;51.108;13.622;2023-06-14T00:52:57;3.20;;;2.70;;
68653;SDS011;55636;51.108;13.622;2023-06-14T00:54:00;3.80;;;2.78;;
68653;SDS011;55636;51.108;13.622;2023-06-14T00:55:02;3.45;;;2.85;;
68653;SDS011;55636;51.108;13.622;2023-06-14T00:56:05;2.85;;;2.50;;
68653;SDS011;55636;51.108;13.622;2023-06-14T00:57:08;2.90;;;2.70;;
68653;SDS011;55636;51.108;13.622;2023-06-14T00:58:12;4.05;;;2.65;;
68653;SDS011;55636;51.108;13.622;2023-06-14T00:59:16;3.22;;;2.75;;
68653;SDS011;55636;51.108;13.622;2023-06-14T01:00:19;3.20;;;2.90;;
68653;SDS011;55636;51.108;13.622;2023-06-14T01:01:21;4.53;;;3.00;;
68653;SDS011;55636;51.108;13.622;2023-06-14T01:02:24;3.13;;;2.75;;
68653;SDS011;55636;51.108;13.622;2023-06-14T01:03:26;4.55;;;3.10;;
68653;SDS011;55636;51.108;13.622;2023-06-14T01:04:30;3.00;;;2.72;;
68653;SDS011;55636;51.108;13.622;2023-06-14T01:05:33;3.25;;;2.92;;
68653;SDS011;55636;51.108;13.622;2023-06-14T01:08:14;3.37;;;2.63;;
68653;SDS011;55636;51.108;13.622;2023-06-14T01:10:48;3.25;;;2.83;;
68653;SDS011;55636;51.108;13.622;2023-06-14T01:12:01;2.70;;;2.50;;
68653;SDS011;55636;51.108;13.622;2023-06-14T01:14:31;4.10;;;2.70;;
68653;SDS011;55636;51.108;13.622;2023-06-14T01:15:37;3.30;;;2.90;;
68653;SDS011;55636;51.108;13.622;2023-06-14T01:16:43;3.10;;;2.70;;
68653;SDS011;55636;51.108;13.622;2023-06-14T01:17:51;4.53;;;2.60;;
68653;SDS011;55636;51.108;13.622;2023-06-14T01:18:56;3.25;;;2.65;;
68653;SDS011;55636;51.108;13.622;2023-06-14T01:20:03;4.20;;;2.58;;
68653;SDS011;55636;51.108;13.622;2023-06-14T01:21:21;2.97;;;2.60;;
68653;SDS011;55636;51.108;13.622;2023-06-14T01:22:28;3.33;;;2.95;;
68653;SDS011;55636;51.108;13.622;2023-06-14T01:23:31;5.00;;;2.90;;
68653;SDS011;55636;51.108;13.622;2023-06-14T01:24:35;3.17;;;2.87;;
68653;SDS011;55636;51.108;13.622;2023-06-14T01:25:37;3.10;;;2.80;;
68653;SDS011;55636;51.108;13.622;2023-06-14T01:26:40;3.00;;;2.70;;
68653;SDS011;55636;51.108;13.622;2023-06-14T01:28:00;3.27;;;2.97;;
68653;SDS011;55636;51.108;13.622;2023-06-14T01:29:06;3.03;;;2.73;;
68653;SDS011;55636;51.108;13.622;2023-06-14T01:30:09;3.67;;;2.80;;
68653;SDS011;55636;51.108;13.622;2023-06-14T01:31:16;3.93;;;3.00;;
68653;SDS011;55636;51.108;13.622;2023-06-14T01:32:21;4.73;;;3.00;;
68653;SDS011;55636;51.108;13.622;2023-06-14T01:33:24;3.77;;;2.80;;
68653;SDS011;55636;51.108;13.622;2023-06-14T01:34:32;3.23;;;2.63;;
68653;SDS011;55636;51.108;13.622;2023-06-14T01:35:36;4.70;;;2.80;;
68653;SDS011;55636;51.108;13.622;2023-06-14T01:36:39;5.17;;;3.00;;
68653;SDS011;55636;51.108;13.622;2023-06-14T01:37:43;4.23;;;2.80;;
68653;SDS011;55636;51.108;13.622;2023-06-14T01:38:48;3.15;;;2.85;;
68653;SDS011;55636;51.108;13.622;2023-06-14T01:39:54;3.83;;;2.73;;
68653;SDS011;55636;51.108;13.622;2023-06-14T01:40:58;4.00;;;2.53;;
68653;SDS011;55636;51.108;13.622;2023-06-14T01:42:02;4.07;;;2.70;;
68653;SDS011;55636;51.108;13.622;2023-06-14T01:43:05;2.70;;;2.50;;
68653;SDS011;55636;51.108;13.622;2023-06-14T01:44:09;3.27;;;2.97;;
68653;SDS011;55636;51.108;13.622;2023-06-14T01:45:12;3.90;;;2.77;;
68653;SDS011;55636;51.108;13.622;2023-06-14T01:46:15;4.57;;;2.80;;
68653;SDS011;55636;51.108;13.622;2023-06-14T01:47:18;3.27;;;2.90;;
68653;SDS011;55636;51.108;13.622;2023-06-14T01:48:23;3.93;;;2.90;;
68653;SDS011;55636;51.108;13.622;2023-06-14T01:49:25;3.93;;;3.10;;
68653;SDS011;55636;51.108;13.622;2023-06-14T01:50:30;2.83;;;2.60;;
68653;SDS011;55636;51.108;13.622;2023-06-14T01:51:33;3.10;;;2.80;;
68653;SDS011;55636;51.108;13.622;2023-06-14T01:52:36;4.93;;;2.53;;
68653;SDS011;55636;51.108;13.622;2023-06-14T01:53:39;4.40;;;2.60;;
68653;SDS011;55636;51.108;13.622;2023-06-14T01:54:44;3.60;;;2.93;;
68653;SDS011;55636;51.108;13.622;2023-06-14T01:55:47;3.63;;;2.70;;
68653;SDS011;55636;51.108;13.622;2023-06-14T01:56:51;2.87;;;2.67;;
68653;SDS011;55636;51.108;13.622;2023-06-14T01:57:53;2.83;;;2.60;;
68653;SDS011;55636;51.108;13.622;2023-06-14T01:58:56;3.13;;;2.73;;
68653;SDS011;55636;51.108;13.622;2023-06-14T01:59:58;3.53;;;2.63;;
68653;SDS011;55636;51.108;13.622;2023-06-14T02:01:01;3.30;;;2.67;;
68653;SDS011;55636;51.108;13.622;2023-06-14T02:02:04;4.40;;;3.00;;
68653;SDS011;55636;51.108;13.622;2023-06-14T02:03:07;2.87;;;2.67;;
68653;SDS011;55636;51.108;13.622;2023-06-14T02:04:09;3.53;;;2.77;;
68653;SDS011;55636;51.108;13.622;2023-06-14T02:05:12;4.20;;;2.80;;
68653;SDS011;55636;51.108;13.622;2023-06-14T02:06:16;4.33;;;3.00;;
68653;SDS011;55636;51.108;13.622;2023-06-14T02:07:18;3.43;;;2.87;;
68653;SDS011;55636;51.108;13.622;2023-06-14T02:08:21;2.93;;;2.73;;
68653;SDS011;55636;51.108;13.622;2023-06-14T02:09:24;5.03;;;3.00;;
68653;SDS011;55636;51.108;13.622;2023-06-14T02:10:28;3.07;;;2.73;;
68653;SDS011;55636;51.108;13.622;2023-06-14T02:11:31;3.47;;;2.80;;
68653;SDS011;55636;51.108;13.622;2023-06-14T02:12:33;3.57;;;3.27;;
68653;SDS011;55636;51.108;13.622;2023-06-14T02:13:36;3.27;;;2.97;;
68653;SDS011;55636;51.108;13.622;2023-06-14T02:14:38;3.30;;;3.00;;
68653;SDS011;55636;51.108;13.622;2023-06-14T02:15:41;3.47;;;3.00;;
68653;SDS011;55636;51.108;13.622;2023-06-14T02:16:46;3.47;;;2.93;;
68653;SDS011;55636;51.108;13.622;2023-06-14T02:17:51;3.40;;;3.00;;
68653;SDS011;55636;51.108;13.622;2023-06-14T02:18:54;3.27;;;2.90;;
68653;SDS011;55636;51.108;13.622;2023-06-14T02:19:58;3.20;;;2.90;;
68653;SDS011;55636;51.108;13.622;2023-06-14T02:21:00;4.10;;;3.00;;
68653;SDS011;55636;51.108;13.622;2023-06-14T02:22:03;3.23;;;2.93;;
68653;SDS011;55636;51.108;13.622;2023-06-14T02:23:05;3.20;;;2.90;;
68653;SDS011;55636;51.108;13.622;2023-06-14T02:24:10;3.20;;;2.90;;
68653;SDS011;55636;51.108;13.622;2023-06-14T02:25:12;3.10;;;2.80;;
68653;SDS011;55636;51.108;13.622;2023-06-14T02:26:15;3.40;;;2.80;;
68653;SDS011;55636;51.108;13.622;2023-06-14T02:27:18;6.30;;;3.10;;
68653;SDS011;55636;51.108;13.622;2023-06-14T02:28:20;3.37;;;2.93;;
68653;SDS011;55636;51.108;13.622;2023-06-14T02:29:22;3.30;;;3.00;;
68653;SDS011;55636;51.108;13.622;2023-06-14T02:30:25;3.47;;;3.17;;
68653;SDS011;55636;51.108;13.622;2023-06-14T02:31:33;3.40;;;3.10;;
68653;SDS011;55636;51.108;13.622;2023-06-14T02:32:36;4.30;;;2.80;;
68653;SDS011;55636;51.108;13.622;2023-06-14T02:33:40;3.20;;;2.90;;
68653;SDS011;55636;51.108;13.622;2023-06-14T02:34:44;3.10;;;2.87;;
68653;SDS011;55636;51.108;13.622;2023-06-14T02:35:49;5.23;;;2.90;;
68653;SDS011;55636;51.108;13.622;2023-06-14T02:36:52;3.00;;;2.80;;
68653;SDS011;55636;51.108;13.622;2023-06-14T02:37:54;3.47;;;3.17;;
68653;SDS011;55636;51.108;13.622;2023-06-14T02:38:57;3.40;;;3.10;;
68653;SDS011;55636;51.108;13.622;2023-06-14T02:39:59;3.40;;;3.10;;
68653;SDS011;55636;51.108;13.622;2023-06-14T02:41:02;3.70;;;3.40;;
68653;SDS011;55636;51.108;13.622;2023-06-14T02:42:04;3.20;;;2.93;;
68653;SDS011;55636;51.108;13.622;2023-06-14T02:43:08;3.87;;;3.13;;
68653;SDS011;55636;51.108;13.622;2023-06-14T02:44:12;4.00;;;3.03;;
68653;SDS011;55636;51.108;13.622;2023-06-14T02:45:16;4.10;;;3.27;;
68653;SDS011;55636;51.108;13.622;2023-06-14T02:46:19;4.50;;;3.10;;
68653;SDS011;55636;51.108;13.622;2023-06-14T02:47:24;4.20;;;3.10;;
68653;SDS011;55636;51.108;13.622;2023-06-14T02:48:27;3.20;;;2.90;;
68653;SDS011;55636;51.108;13.622;2023-06-14T02:49:30;4.00;;;3.10;;
68653;SDS011;55636;51.108;13.622;2023-06-14T02:50:33;6.57;;;3.17;;
68653;SDS011;55636;51.108;13.622;2023-06-14T02:51:35;3.00;;;2.67;;
68653;SDS011;55636;51.108;13.622;2023-06-14T02:52:38;3.43;;;3.13;;
68653;SDS011;55636;51.108;13.622;2023-06-14T02:53:43;3.37;;;3.07;;
68653;SDS011;55636;51.108;13.622;2023-06-14T02:54:46;3.20;;;2.90;;
68653;SDS011;55636;51.108;13.622;2023-06-14T02:55:51;3.70;;;3.23;;
68653;SDS011;55636;51.108;13.622;2023-06-14T02:56:54;3.63;;;3.33;;
68653;SDS011;55636;51.108;13.622;2023-06-14T02:57:57;4.60;;;3.40;;
68653;SDS011;55636;51.108;13.622;2023-06-14T02:59:00;4.73;;;3.40;;
68653;SDS011;55636;51.108;13.622;2023-06-14T03:00:03;3.43;;;3.10;;
68653;SDS011;55636;51.108;13.622;2023-06-14T03:01:10;3.30;;;3.00;;
68653;SDS011;55636;51.108;13.622;2023-06-14T03:02:16;3.00;;;2.80;;
68653;SDS011;55636;51.108;13.622;2023-06-14T03:03:19;3.93;;;3.03;;
68653;SDS011;55636;51.108;13.622;2023-06-14T03:04:26;3.57;;;3.17;;
68653;SDS011;55636;51.108;13.622;2023-06-14T03:05:29;3.20;;;2.90;;
68653;SDS011;55636;51.108;13.622;2023-06-14T03:06:31;3.63;;;3.27;;
68653;SDS011;55636;51.108;13.622;2023-06-14T03:07:34;3.40;;;2.97;;
68653;SDS011;55636;51.108;13.622;2023-06-14T03:08:38;3.80;;;3.20;;
68653;SDS011;55636;51.108;13.622;2023-06-14T03:09:46;3.57;;;3.03;;
68653;SDS011;55636;51.108;13.622;2023-06-14T03:10:49;3.57;;;3.23;;
68653;SDS011;55636;51.108;13.622;2023-06-14T03:11:51;3.40;;;3.10;;
68653;SDS011;55636;51.108;13.622;2023-06-14T03:12:53;5.40;;;3.60;;
68653;SDS011;55636;51.108;13.622;2023-06-14T03:13:56;3.47;;;3.07;;
68653;SDS011;55636;51.108;13.622;2023-06-14T03:15:01;3.50;;;3.20;;
68653;SDS011;55636;51.108;13.622;2023-06-14T03:16:06;4.50;;;3.33;;
68653;SDS011;55636;51.108;13.622;2023-06-14T03:17:11;5.13;;;3.50;;
68653;SDS011;55636;51.108;13.622;2023-06-14T03:18:14;3.80;;;3.50;;
68653;SDS011;55636;51.108;13.622;2023-06-14T03:19:18;3.33;;;3.03;;
68653;SDS011;55636;51.108;13.622;2023-06-14T03:20:20;3.47;;;3.10;;
68653;SDS011;55636;51.108;13.622;2023-06-14T03:21:23;4.20;;;3.80;;
68653;SDS011;55636;51.108;13.622;2023-06-14T03:22:26;5.20;;;3.33;;
68653;SDS011;55636;51.108;13.622;2023-06-14T03:23:28;4.70;;;3.50;;
68653;SDS011;55636;51.108;13.622;2023-06-14T03:24:31;3.70;;;3.30;;
68653;SDS011;55636;51.108;13.622;2023-06-14T03:25:44;4.03;;;3.37;;
68653;SDS011;55636;51.108;13.622;2023-06-14T03:26:48;3.80;;;3.40;;
68653;SDS011;55636;51.108;13.622;2023-06-14T03:27:50;3.73;;;3.43;;
68653;SDS011;55636;51.108;13.622;2023-06-14T03:28:53;4.13;;;3.47;;
68653;SDS011;55636;51.108;13.622;2023-06-14T03:29:57;5.27;;;3.60;;
68653;SDS011;55636;51.108;13.622;2023-06-14T03:30:59;3.90;;;3.40;;
68653;SDS011;55636;51.108;13.622;2023-06-14T03:32:05;3.60;;;3.20;;
68653;SDS011;55636;51.108;13.622;2023-06-14T03:33:11;3.67;;;3.37;;
68653;SDS011;55636;51.108;13.622;2023-06-14T03:34:15;4.60;;;3.33;;
68653;SDS011;55636;51.108;13.622;2023-06-14T03:35:17;3.97;;;3.60;;
68653;SDS011;55636;51.108;13.622;2023-06-14T03:36:22;4.87;;;3.57;;
68653;SDS011;55636;51.108;13.622;2023-06-14T03:37:24;4.57;;;3.40;;
68653;SDS011;55636;51.108;13.622;2023-06-14T03:38:27;4.60;;;3.70;;
68653;SDS011;55636;51.108;13.622;2023-06-14T03:39:29;4.63;;;3.63;;
68653;SDS011;55636;51.108;13.622;2023-06-14T03:40:32;4.20;;;3.53;;
68653;SDS011;55636;51.108;13.622;2023-06-14T03:41:37;3.90;;;3.60;;
68653;SDS011;55636;51.108;13.622;2023-06-14T03:42:39;5.67;;;3.60;;
68653;SDS011;55636;51.108;13.622;2023-06-14T03:43:42;3.40;;;3.10;;
68653;SDS011;55636;51.108;13.622;2023-06-14T03:44:45;3.70;;;3.40;;
68653;SDS011;55636;51.108;13.622;2023-06-14T03:45:48;3.83;;;3.53;;
68653;SDS011;55636;51.108;13.622;2023-06-14T03:46:51;5.13;;;3.70;;
68653;SDS011;55636;51.108;13.622;2023-06-14T03:47:53;4.63;;;3.77;;
68653;SDS011;55636;51.108;13.622;2023-06-14T03:48:57;4.63;;;3.80;;
68653;SDS011;55636;51.108;13.622;2023-06-14T03:49:59;4.33;;;3.47;;
68653;SDS011;55636;51.108;13.622;2023-06-14T03:51:02;4.10;;;3.37;;
68653;SDS011;55636;51.108;13.622;2023-06-14T03:52:05;4.43;;;3.63;;
68653;SDS011;55636;51.108;13.622;2023-06-14T03:53:09;3.70;;;3.20;;
68653;SDS011;55636;51.108;13.622;2023-06-14T03:54:15;6.73;;;3.73;;
68653;SDS011;55636;51.108;13.622;2023-06-14T03:55:38;3.77;;;3.37;;
68653;SDS011;55636;51.108;13.622;2023-06-14T03:57:00;6.30;;;3.50;;
68653;SDS011;55636;51.108;13.622;2023-06-14T03:58:03;5.47;;;3.90;;
68653;SDS011;55636;51.108;13.622;2023-06-14T03:59:06;4.33;;;3.67;;
68653;SDS011;55636;51.108;13.622;2023-06-14T04:00:08;4.20;;;3.80;;
68653;SDS011;55636;51.108;13.622;2023-06-14T04:01:15;4.30;;;3.23;;
68653;SDS011;55636;51.108;13.622;2023-06-14T04:02:17;3.70;;;3.40;;
68653;SDS011;55636;51.108;13.622;2023-06-14T04:03:20;5.23;;;3.83;;
68653;SDS011;55636;51.108;13.622;2023-06-14T04:04:33;4.67;;;4.00;;
68653;SDS011;55636;51.108;13.622;2023-06-14T04:05:39;4.00;;;3.63;;
68653;SDS011;55636;51.108;13.622;2023-06-14T04:06:44;4.00;;;3.60;;
68653;SDS011;55636;51.108;13.622;2023-06-14T04:07:50;3.90;;;3.50;;
68653;SDS011;55636;51.108;13.622;2023-06-14T04:08:52;4.60;;;3.77;;
68653;SDS011;55636;51.108;13.622;2023-06-14T04:09:55;4.27;;;3.60;;
68653;SDS011;55636;51.108;13.622;2023-06-14T04:10:58;4.27;;;3.87;;
68653;SDS011;55636;51.108;13.622;2023-06-14T04:12:00;4.43;;;4.03;;
68653;SDS011;55636;51.108;13.622;2023-06-14T04:13:02;4.10;;;3.70;;
68653;SDS011;55636;51.108;13.622;2023-06-14T04:14:05;4.60;;;4.20;;
68653;SDS011;55636;51.108;13.622;2023-06-14T04:15:07;4.07;;;3.67;;
68653;SDS011;55636;51.108;13.622;2023-06-14T04:16:22;4.80;;;3.90;;
68653;SDS011;55636;51.108;13.622;2023-06-14T04:17:25;4.30;;;3.80;;
68653;SDS011;55636;51.108;13.622;2023-06-14T04:18:27;3.90;;;3.50;;
68653;SDS011;55636;51.108;13.622;2023-06-14T04:19:30;4.53;;;3.63;;
68653;SDS011;55636;51.108;13.622;2023-06-14T04:20:32;4.57;;;3.73;;
68653;SDS011;55636;51.108;13.622;2023-06-14T04:21:35;4.43;;;3.73;;
68653;SDS011;55636;51.108;13.622;2023-06-14T04:22:39;4.07;;;3.67;;
68653;SDS011;55636;51.108;13.622;2023-06-14T04:23:43;4.65;;;3.60;;
68653;SDS011;55636;51.108;13.622;2023-06-14T04:24:48;4.33;;;3.37;;
68653;SDS011;55636;51.108;13.622;2023-06-14T04:26:06;4.90;;;3.80;;
68653;SDS011;55636;51.108;13.622;2023-06-14T04:27:08;4.30;;;3.80;;
68653;SDS011;55636;51.108;13.622;2023-06-14T04:28:12;4.03;;;3.58;;
68653;SDS011;55636;51.108;13.622;2023-06-14T04:29:16;3.83;;;3.40;;
68653;SDS011;55636;51.108;13.622;2023-06-14T04:30:24;4.03;;;3.50;;
68653;SDS011;55636;51.108;13.622;2023-06-14T04:31:29;5.03;;;3.60;;
68653;SDS011;55636;51.108;13.622;2023-06-14T04:32:36;6.38;;;3.38;;
68653;SDS011;55636;51.108;13.622;2023-06-14T04:33:42;4.25;;;3.60;;
68653;SDS011;55636;51.108;13.622;2023-06-14T04:34:49;3.67;;;3.35;;
68653;SDS011;55636;51.108;13.622;2023-06-14T04:35:56;4.70;;;3.50;;
68653;SDS011;55636;51.108;13.622;2023-06-14T04:36:58;4.85;;;3.45;;
68653;SDS011;55636;51.108;13.622;2023-06-14T04:38:21;4.70;;;3.60;;
68653;SDS011;55636;51.108;13.622;2023-06-14T04:39:28;5.10;;;3.50;;
68653;SDS011;55636;51.108;13.622;2023-06-14T04:40:31;6.13;;;3.88;;
68653;SDS011;55636;51.108;13.622;2023-06-14T04:41:36;5.68;;;3.42;;
68653;SDS011;55636;51.108;13.622;2023-06-14T04:42:39;4.78;;;3.60;;
68653;SDS011;55636;51.108;13.622;2023-06-14T04:43:44;3.80;;;3.50;;
68653;SDS011;55636;51.108;13.622;2023-06-14T04:44:51;4.78;;;3.70;;
68653;SDS011;55636;51.108;13.622;2023-06-14T04:45:58;3.92;;;3.47;;
68653;SDS011;55636;51.108;13.622;2023-06-14T04:47:01;4.38;;;3.50;;
68653;SDS011;55636;51.108;13.622;2023-06-14T04:48:03;3.67;;;3.38;;
68653;SDS011;55636;51.108;13.622;2023-06-14T04:49:06;4.72;;;3.90;;
68653;SDS011;55636;51.108;13.622;2023-06-14T04:50:10;7.07;;;3.53;;
68653;SDS011;55636;51.108;13.622;2023-06-14T04:51:15;3.53;;;3.22;;
68653;SDS011;55636;51.108;13.622;2023-06-14T04:52:18;3.60;;;3.30;;
68653;SDS011;55636;51.108;13.622;2023-06-14T04:53:22;6.55;;;3.83;;
68653;SDS011;55636;51.108;13.622;2023-06-14T04:54:29;4.78;;;3.92;;
68653;SDS011;55636;51.108;13.622;2023-06-14T04:55:35;5.32;;;3.83;;
68653;SDS011;55636;51.108;13.622;2023-06-14T04:56:39;4.15;;;3.63;;
68653;SDS011;55636;51.108;13.622;2023-06-14T04:57:42;3.88;;;3.53;;
68653;SDS011;55636;51.108;13.622;2023-06-14T04:58:44;3.95;;;3.55;;
68653;SDS011;55636;51.108;13.622;2023-06-14T04:59:48;3.90;;;3.53;;
68653;SDS011;55636;51.108;13.622;2023-06-14T05:00:59;3.90;;;3.40;;
68653;SDS011;55636;51.108;13.622;2023-06-14T05:02:02;3.92;;;3.55;;
68653;SDS011;55636;51.108;13.622;2023-06-14T05:03:05;3.90;;;3.50;;
68653;SDS011;55636;51.108;13.622;2023-06-14T05:04:08;3.90;;;3.60;;
68653;SDS011;55636;51.108;13.622;2023-06-14T05:05:11;5.15;;;3.67;;
68653;SDS011;55636;51.108;13.622;2023-06-14T05:06:13;4.20;;;3.80;;
68653;SDS011;55636;51.108;13.622;2023-06-14T05:07:16;5.72;;;3.42;;
68653;SDS011;55636;51.108;13.622;2023-06-14T05:08:18;3.75;;;3.40;;
68653;SDS011;55636;51.108;13.622;2023-06-14T05:09:22;3.75;;;3.45;;
68653;SDS011;55636;51.108;13.622;2023-06-14T05:10:25;3.92;;;3.55;;
68653;SDS011;55636;51.108;13.622;2023-06-14T05:11:28;4.65;;;3.72;;
68653;SDS011;55636;51.108;13.622;2023-06-14T05:12:31;4.00;;;3.60;;
68653;SDS011;55636;51.108;13.622;2023-06-14T05:13:33;4.38;;;3.65;;
68653;SDS011;55636;51.108;13.622;2023-06-14T05:14:36;4.30;;;3.78;;
68653;SDS011;55636;51.108;13.622;2023-06-14T05:15:40;5.10;;;3.78;;
68653;SDS011;55636;51.108;13.622;2023-06-14T05:16:43;4.13;;;3.63;;
68653;SDS011;55636;51.108;13.622;2023-06-14T05:17:45;6.00;;;4.80;;
68653;SDS011;55636;51.108;13.622;2023-06-14T05:18:55;8.07;;;4.43;;
68653;SDS011;55636;51.108;13.622;2023-06-14T05:19:57;5.97;;;4.43;;
68653;SDS011;55636;51.108;13.622;2023-06-14T05:21:00;4.55;;;4.15;;
68653;SDS011;55636;51.108;13.622;2023-06-14T05:22:02;4.30;;;3.90;;
68653;SDS011;55636;51.108;13.622;2023-06-14T05:23:05;4.20;;;3.80;;
68653;SDS011;55636;51.108;13.622;2023-06-14T05:24:07;4.10;;;3.70;;
68653;SDS011;55636;51.108;13.622;2023-06-14T05:25:11;4.40;;;3.83;;
68653;SDS011;55636;51.108;13.622;2023-06-14T05:26:14;4.68;;;3.92;;
68653;SDS011;55636;51.108;13.622;2023-06-14T05:27:16;5.13;;;3.80;;
68653;SDS011;55636;51.108;13.622;2023-06-14T05:28:19;4.65;;;3.90;;
68653;SDS011;55636;51.108;13.622;2023-06-14T05:29:22;6.30;;;4.00;;
68653;SDS011;55636;51.108;13.622;2023-06-14T05:30:25;4.25;;;3.70;;
68653;SDS011;55636;51.108;13.622;2023-06-14T05:31:28;4.45;;;3.72;;
68653;SDS011;55636;51.108;13.622;2023-06-14T05:32:30;5.65;;;3.50;;
68653;SDS011;55636;51.108;13.622;2023-06-14T05:33:33;6.32;;;4.03;;
68653;SDS011;55636;51.108;13.622;2023-06-14T05:34:35;3.95;;;3.60;;
68653;SDS011;55636;51.108;13.622;2023-06-14T05:35:38;4.95;;;3.55;;
68653;SDS011;55636;51.108;13.622;2023-06-14T05:36:40;3.97;;;3.58;;
68653;SDS011;55636;51.108;13.622;2023-06-14T05:37:42;3.72;;;3.42;;
68653;SDS011;55636;51.108;13.622;2023-06-14T05:38:45;5.15;;;3.72;;
68653;SDS011;55636;51.108;13.622;2023-06-14T05:39:47;4.35;;;3.90;;
68653;SDS011;55636;51.108;13.622;2023-06-14T05:40:50;4.15;;;3.75;;
68653;SDS011;55636;51.108;13.622;2023-06-14T05:41:52;4.53;;;3.97;;
68653;SDS011;55636;51.108;13.622;2023-06-14T05:42:55;5.68;;;3.90;;
68653;SDS011;55636;51.108;13.622;2023-06-14T05:43:57;4.18;;;3.88;;
68653;SDS011;55636;51.108;13.622;2023-06-14T05:45:00;4.00;;;3.60;;
68653;SDS011;55636;51.108;13.622;2023-06-14T05:46:03;5.00;;;3.85;;
68653;SDS011;55636;51.108;13.622;2023-06-14T05:47:06;4.57;;;3.80;;
68653;SDS011;55636;51.108;13.622;2023-06-14T05:48:08;4.20;;;3.80;;
68653;SDS011;55636;51.108;13.622;2023-06-14T05:49:11;4.93;;;4.05;;
68653;SDS011;55636;51.108;13.622;2023-06-14T05:50:14;4.38;;;3.80;;
68653;SDS011;55636;51.108;13.622;2023-06-14T05:51:16;4.40;;;4.00;;
68653;SDS011;55636;51.108;13.622;2023-06-14T05:52:21;4.47;;;3.90;;
68653;SDS011;55636;51.108;13.622;2023-06-14T05:53:23;5.20;;;4.00;;
68653;SDS011;55636;51.108;13.622;2023-06-14T05:54:25;4.63;;;4.22;;
68653;SDS011;55636;51.108;13.622;2023-06-14T05:55:28;6.75;;;4.50;;
68653;SDS011;55636;51.108;13.622;2023-06-14T05:56:30;5.03;;;4.22;;
68653;SDS011;55636;51.108;13.622;2023-06-14T05:57:33;4.50;;;4.10;;
68653;SDS011;55636;51.108;13.622;2023-06-14T05:58:35;4.25;;;3.85;;
68653;SDS011;55636;51.108;13.622;2023-06-14T05:59:37;4.38;;;3.97;;
68653;SDS011;55636;51.108;13.622;2023-06-14T06:00:40;4.68;;;4.28;;
68653;SDS011;55636;51.108;13.622;2023-06-14T06:01:43;5.00;;;4.35;;
68653;SDS011;55636;51.108;13.622;2023-06-14T06:02:46;4.97;;;4.47;;
68653;SDS011;55636;51.108;13.622;2023-06-14T06:03:49;6.22;;;4.00;;
68653;SDS011;55636;51.108;13.622;2023-06-14T06:04:52;4.70;;;4.30;;
68653;SDS011;55636;51.108;13.622;2023-06-14T06:05:55;4.50;;;4.10;;
68653;SDS011;55636;51.108;13.622;2023-06-14T06:06:57;4.10;;;3.75;;
68653;SDS011;55636;51.108;13.622;2023-06-14T06:07:59;4.38;;;4.03;;
68653;SDS011;55636;51.108;13.622;2023-06-14T06:09:03;4.60;;;4.20;;
68653;SDS011;55636;51.108;13.622;2023-06-14T06:10:06;4.47;;;4.07;;
68653;SDS011;55636;51.108;13.622;2023-06-14T06:11:09;4.30;;;3.90;;
68653;SDS011;55636;51.108;13.622;2023-06-14T06:12:11;4.60;;;4.20;;
68653;SDS011;55636;51.108;13.622;2023-06-14T06:13:14;4.60;;;4.20;;
68653;SDS011;55636;51.108;13.622;2023-06-14T06:14:16;4.10;;;3.80;;
68653;SDS011;55636;51.108;13.622;2023-06-14T06:15:19;5.03;;;3.72;;
68653;SDS011;55636;51.108;13.622;2023-06-14T06:16:21;4.70;;;4.30;;
68653;SDS011;55636;51.108;13.622;2023-06-14T06:17:24;5.50;;;4.38;;
68653;SDS011;55636;51.108;13.622;2023-06-14T06:18:47;4.90;;;4.43;;
68653;SDS011;55636;51.108;13.622;2023-06-14T06:19:49;5.13;;;4.63;;
68653;SDS011;55636;51.108;13.622;2023-06-14T06:20:52;6.65;;;4.60;;
68653;SDS011;55636;51.108;13.622;2023-06-14T06:21:54;4.72;;;4.32;;
68653;SDS011;55636;51.108;13.622;2023-06-14T06:22:57;4.65;;;4.25;;